createdAt,value
2018-01-15T00:00:40.218Z,100427.55
2018-01-15T00:03:07.936Z,100433.11
2018-01-15T00:05:35.498Z,100431.81
2018-01-15T00:08:03.110Z,100428.84
2018-01-15T00:10:30.658Z,100430.09
2018-01-15T00:12:58.213Z,100408.20
2018-01-15T00:15:25.796Z,100422.07
2018-01-15T00:17:53.445Z,100430.52
2018-01-15T00:20:21.087Z,100431.77
2018-01-15T00:22:48.739Z,100433.05
2018-01-15T00:25:16.286Z,100436.83
2018-01-15T00:27:43.907Z,100418.29
2018-01-15T00:30:11.466Z,100438.53
2018-01-15T00:32:39.150Z,100429.16
2018-01-15T00:35:06.967Z,100430.84
2018-01-15T00:37:34.527Z,100435.09
2018-01-15T00:40:02.094Z,100433.79
2018-01-15T00:42:29.641Z,100434.28
2018-01-15T00:44:57.437Z,100429.67
2018-01-15T00:47:25.023Z,100425.77
2018-01-15T00:49:52.622Z,100420.32
2018-01-15T00:52:20.166Z,100427.56
2018-01-15T00:54:47.766Z,100425.12
2018-01-15T00:57:15.430Z,100427.21
2018-01-15T00:59:42.986Z,100412.78
2018-01-15T01:02:10.676Z,100414.41
2018-01-15T01:04:38.222Z,100410.63
2018-01-15T01:07:05.998Z,100413.09
2018-01-15T01:09:33.723Z,100412.55
2018-01-15T01:12:01.277Z,100399.45
2018-01-15T01:14:28.822Z,100409.46
2018-01-15T01:16:56.390Z,100412.86
2018-01-15T01:19:23.958Z,100407.86
2018-01-15T01:21:51.805Z,100412.19
2018-01-15T01:24:19.349Z,100413.48
2018-01-15T01:26:46.902Z,100409.11
2018-01-15T01:29:14.454Z,100390.53
2018-01-15T01:31:42.006Z,100412.55
2018-01-15T01:34:09.598Z,100401.12
2018-01-15T01:36:37.202Z,100401.62
2018-01-15T01:39:04.929Z,100402.87
2018-01-15T01:41:32.748Z,100406.72
2018-01-15T01:44:00.357Z,100403.30
2018-01-15T01:46:27.955Z,100397.44
2018-01-15T01:48:59.716Z,100389.44
2018-01-15T01:51:27.268Z,100383.14
2018-01-15T01:53:54.837Z,100385.67
2018-01-15T01:56:22.382Z,100386.53
2018-01-15T01:58:49.983Z,100389.64
2018-01-15T02:01:17.710Z,100377.03
2018-01-15T02:03:45.258Z,100390.66
2018-01-15T02:06:12.822Z,100377.52
2018-01-15T02:08:40.372Z,100370.70
2018-01-15T02:11:08.082Z,100356.28
2018-01-15T02:13:35.634Z,100360.08
2018-01-15T02:16:03.178Z,100354.98
2018-01-15T02:18:30.837Z,100345.19
2018-01-15T02:20:58.388Z,100342.24
2018-01-15T02:23:26.168Z,100338.47
2018-01-15T02:25:53.748Z,100344.78
2018-01-15T02:28:21.309Z,100339.27
2018-01-15T02:30:48.890Z,100333.80
2018-01-15T02:33:16.461Z,100346.02
2018-01-15T02:35:44.264Z,100344.36
2018-01-15T02:38:11.975Z,100351.09
2018-01-15T02:40:39.710Z,100343.51
2018-01-15T02:43:07.279Z,100355.89
2018-01-15T02:45:34.866Z,100341.13
2018-01-15T02:48:02.473Z,100357.69
2018-01-15T02:50:30.071Z,100356.39
2018-01-15T02:52:57.624Z,100356.06
2018-01-15T02:55:25.178Z,100359.41
2018-01-15T02:57:52.820Z,100362.81
2018-01-15T03:00:20.410Z,100353.45
2018-01-15T03:02:47.966Z,100355.16
2018-01-15T03:05:15.517Z,100351.80
2018-01-15T03:07:43.078Z,100355.99
2018-01-15T03:10:10.631Z,100358.09
2018-01-15T03:12:38.246Z,100353.81
2018-01-15T03:15:05.789Z,100346.09
2018-01-15T03:17:33.343Z,100343.98
2018-01-15T03:20:00.897Z,100344.39
2018-01-15T03:22:28.691Z,100342.31
2018-01-15T03:24:56.313Z,100345.30
2018-01-15T03:27:23.941Z,100341.55
2018-01-15T03:29:51.483Z,100347.00
2018-01-15T03:32:19.171Z,100356.03
2018-01-15T03:34:46.722Z,100348.34
2018-01-15T03:37:14.352Z,100346.71
2018-01-15T03:39:41.898Z,100345.02
2018-01-15T03:42:09.444Z,100349.31
2018-01-15T03:44:37.167Z,100347.16
2018-01-15T03:47:04.701Z,100348.42
2018-01-15T03:49:32.590Z,100348.83
2018-01-15T03:52:00.142Z,100353.84
2018-01-15T03:54:27.685Z,100354.71
2018-01-15T03:56:55.238Z,100356.39
2018-01-15T03:59:22.823Z,100363.16
2018-01-15T04:01:50.413Z,100360.92
2018-01-15T04:04:17.974Z,100359.25
2018-01-15T04:06:45.812Z,100359.25
2018-01-15T04:09:13.386Z,100352.86
2018-01-15T04:11:40.991Z,100357.42
2018-01-15T04:14:08.591Z,100356.45
2018-01-15T04:16:36.133Z,100357.31
2018-01-15T04:19:03.674Z,100354.78
2018-01-15T04:21:31.223Z,100354.84
2018-01-15T04:23:58.765Z,100358.70
2018-01-15T04:26:26.362Z,100354.02
2018-01-15T04:28:53.906Z,100359.94
2018-01-15T04:31:21.507Z,100357.34
2018-01-15T04:33:49.067Z,100353.58
2018-01-15T04:36:16.659Z,100358.27
2018-01-15T04:38:44.258Z,100363.94
2018-01-15T04:41:11.798Z,100368.23
2018-01-15T04:43:39.338Z,100365.92
2018-01-15T04:46:06.993Z,100373.25
2018-01-15T04:48:34.531Z,100378.78
2018-01-15T04:51:02.129Z,100364.72
2018-01-15T04:53:29.730Z,100363.88
2018-01-15T04:55:57.314Z,100365.17
2018-01-15T04:58:24.852Z,100373.28
2018-01-15T05:00:52.393Z,100369.88
2018-01-15T05:03:20.046Z,100375.83
2018-01-15T05:05:47.590Z,100377.91
2018-01-15T05:08:15.253Z,100383.80
2018-01-15T05:10:42.974Z,100386.33
2018-01-15T05:13:10.518Z,100384.97
2018-01-15T05:15:38.200Z,100380.76
2018-01-15T05:18:06.027Z,100385.00
2018-01-15T05:20:33.636Z,100384.97
2018-01-15T05:23:02.286Z,100394.71
2018-01-15T05:25:29.829Z,100391.41
2018-01-15T05:27:57.426Z,100396.09
2018-01-15T05:30:25.121Z,100408.35
2018-01-15T05:32:52.836Z,100411.36
2018-01-15T05:35:20.454Z,100414.25
2018-01-15T05:37:48.001Z,100421.41
2018-01-15T05:40:15.589Z,100427.81
2018-01-15T05:42:43.315Z,100424.00
2018-01-15T05:45:10.977Z,100423.17
2018-01-15T05:47:38.535Z,100420.27
2018-01-15T05:50:06.258Z,100427.08
2018-01-15T05:52:33.986Z,100430.52
2018-01-15T05:55:01.698Z,100423.80
2018-01-15T05:57:29.254Z,100428.92
2018-01-15T05:59:57.034Z,100433.09
2018-01-15T06:02:24.651Z,100437.71
2018-01-15T06:04:52.282Z,100438.98
2018-01-15T06:07:19.826Z,100436.06
2018-01-15T06:09:47.374Z,100445.84
2018-01-15T06:12:14.937Z,100448.00
2018-01-15T06:14:42.478Z,100453.91
2018-01-15T06:17:10.213Z,100451.37
2018-01-15T06:19:37.790Z,100460.67
2018-01-15T06:22:05.339Z,100456.39
2018-01-15T06:24:33.015Z,100462.28
2018-01-15T06:27:00.622Z,100466.44
2018-01-15T06:29:28.238Z,100469.83
2018-01-15T06:31:55.785Z,100466.88
2018-01-15T06:34:23.342Z,100476.99
2018-01-15T06:36:50.906Z,100476.11
2018-01-15T06:39:18.619Z,100483.70
2018-01-15T06:41:46.206Z,100473.94
2018-01-15T06:44:13.957Z,100476.09
2018-01-15T06:46:41.773Z,100493.01
2018-01-15T06:49:09.594Z,100485.02
2018-01-15T06:51:37.149Z,100480.32
2018-01-15T06:54:04.839Z,100486.17
2018-01-15T06:56:32.386Z,100491.65
2018-01-15T06:58:59.952Z,100495.52
2018-01-15T07:01:27.534Z,100493.06
2018-01-15T07:03:55.091Z,100489.23
2018-01-15T07:06:22.686Z,100496.48
2018-01-15T07:08:50.434Z,100506.16
2018-01-15T07:11:17.984Z,100507.83
2018-01-15T07:13:45.671Z,100511.11
2018-01-15T07:16:13.391Z,100500.88
2018-01-15T07:18:41.890Z,100504.69
2018-01-15T07:21:09.434Z,100500.47
2018-01-15T07:23:39.367Z,100498.75
2018-01-15T07:26:08.270Z,100495.07
2018-01-15T07:28:36.122Z,100488.75
2018-01-15T07:31:04.119Z,100489.06
2018-01-15T07:33:33.192Z,100495.80
2018-01-15T07:36:00.807Z,100502.97
2018-01-15T07:38:28.362Z,100504.59
2018-01-15T07:40:56.165Z,100504.55
2018-01-15T07:43:23.751Z,100499.80
2018-01-15T07:45:51.298Z,100489.20
2018-01-15T07:48:18.863Z,100486.63
2018-01-15T07:50:46.954Z,100498.14
2018-01-15T07:53:14.506Z,100517.66
2018-01-15T07:55:42.500Z,100525.77
2018-01-15T07:58:10.042Z,100523.73
2018-01-15T08:00:37.596Z,100510.33
2018-01-15T08:03:05.158Z,100511.88
2018-01-15T08:05:32.872Z,100503.78
2018-01-15T08:08:00.494Z,100496.47
2018-01-15T08:10:28.041Z,100497.67
2018-01-15T08:12:55.586Z,100506.55
2018-01-15T08:15:23.150Z,100515.98
2018-01-15T08:17:50.702Z,100485.98
2018-01-15T08:20:18.314Z,100500.28
2018-01-15T08:22:45.855Z,100513.46
2018-01-15T08:25:13.474Z,100510.07
2018-01-15T08:27:41.050Z,100507.52
2018-01-15T08:30:08.643Z,100511.33
2018-01-15T08:32:36.266Z,100510.09
2018-01-15T08:35:03.885Z,100515.70
2018-01-15T08:37:31.459Z,100505.22
2018-01-15T08:39:59.220Z,100533.93
2018-01-15T08:42:26.879Z,100522.07
2018-01-15T08:44:54.619Z,100508.72
2018-01-15T08:47:22.171Z,100496.86
2018-01-15T08:49:49.802Z,100492.02
2018-01-15T08:52:17.386Z,100482.72
2018-01-15T08:54:44.969Z,100472.91
2018-01-15T08:57:12.703Z,100474.45
2018-01-15T08:59:40.246Z,100442.05
2018-01-15T09:02:07.819Z,100482.38
2018-01-15T09:04:35.386Z,100489.61
2018-01-15T09:07:03.167Z,100491.61
2018-01-15T09:09:30.779Z,100501.23
2018-01-15T09:11:58.349Z,100510.20
2018-01-15T09:14:25.958Z,100514.91
2018-01-15T09:16:53.518Z,100524.70
2018-01-15T09:19:21.067Z,100531.66
2018-01-15T09:21:48.874Z,100521.30
2018-01-15T09:24:16.450Z,100509.13
2018-01-15T09:26:44.002Z,100502.83
2018-01-15T09:29:11.570Z,100497.40
2018-01-15T09:31:39.118Z,100502.47
2018-01-15T09:34:06.729Z,100513.95
2018-01-15T09:36:34.373Z,100511.86
2018-01-15T09:39:01.988Z,100508.54
2018-01-15T09:41:29.721Z,100498.83
2018-01-15T09:43:57.439Z,100502.16
2018-01-15T09:46:25.070Z,100499.11
2018-01-15T09:48:52.614Z,100499.84
2018-01-15T09:51:20.221Z,100504.91
2018-01-15T09:53:47.912Z,100504.45
2018-01-15T09:56:15.458Z,100504.01
2018-01-15T09:58:43.053Z,100496.75
2018-01-15T10:01:10.614Z,100501.92
2018-01-15T10:03:38.165Z,100494.38
2018-01-15T10:06:05.722Z,100477.06
2018-01-15T10:08:33.282Z,100471.04
2018-01-15T10:11:01.061Z,100462.45
2018-01-15T10:13:28.747Z,100464.74
2018-01-15T10:15:56.303Z,100480.47
2018-01-15T10:18:23.858Z,100474.56
2018-01-15T10:20:51.402Z,100472.85
2018-01-15T10:23:19.005Z,100474.52
2018-01-15T10:25:46.638Z,100467.66
2018-01-15T10:28:14.202Z,100463.83
2018-01-15T10:30:41.762Z,100474.37
2018-01-15T10:33:09.489Z,100467.75
2018-01-15T10:35:37.211Z,100456.02
2018-01-15T10:38:04.767Z,100456.52
2018-01-15T10:40:32.354Z,100443.30
2018-01-15T10:43:00.131Z,100434.30
2018-01-15T10:45:27.878Z,100442.30
2018-01-15T10:47:55.487Z,100444.00
2018-01-15T10:50:23.030Z,100427.88
2018-01-15T10:52:50.574Z,100433.80
2018-01-15T10:55:18.122Z,100436.81
2018-01-15T10:57:45.675Z,100428.30
2018-01-15T11:00:13.299Z,100427.88
2018-01-15T11:02:40.838Z,100420.19
2018-01-15T11:05:08.394Z,100408.19
2018-01-15T11:07:35.966Z,100414.80
2018-01-15T11:10:03.582Z,100411.30
2018-01-15T11:12:31.687Z,100401.31
2018-01-15T11:14:59.494Z,100404.41
2018-01-15T11:17:27.038Z,100403.27
2018-01-15T11:19:54.657Z,100396.95
2018-01-15T11:22:22.202Z,100397.34
2018-01-15T11:24:49.879Z,100393.79
2018-01-15T11:27:17.426Z,100388.55
2018-01-15T11:29:45.099Z,100379.63
2018-01-15T11:32:12.918Z,100374.55
2018-01-15T11:34:40.640Z,100376.71
2018-01-15T11:37:08.362Z,100371.50
2018-01-15T11:39:35.930Z,100373.19
2018-01-15T11:42:03.490Z,100364.21
2018-01-15T11:44:31.052Z,100368.04
2018-01-15T11:46:58.685Z,100371.53
2018-01-15T11:49:26.445Z,100375.14
2018-01-15T11:51:54.024Z,100377.52
2018-01-15T11:54:21.683Z,100372.87
2018-01-15T11:56:49.245Z,100368.90
2018-01-15T11:59:16.850Z,100365.72
2018-01-15T12:01:44.510Z,100374.58
2018-01-15T12:04:12.061Z,100366.56
2018-01-15T12:06:39.770Z,100373.33
2018-01-15T12:09:07.358Z,100375.48
2018-01-15T12:11:35.104Z,100357.16
2018-01-15T12:14:02.697Z,100357.70
2018-01-15T12:16:30.771Z,100356.74
2018-01-15T12:18:58.483Z,100352.89
2018-01-15T12:21:26.102Z,100347.36
2018-01-15T12:23:53.646Z,100342.36
2018-01-15T12:26:21.248Z,100351.70
2018-01-15T12:28:48.816Z,100342.83
2018-01-15T12:31:16.649Z,100354.23
2018-01-15T12:33:44.202Z,100355.53
2018-01-15T12:36:11.850Z,100345.36
2018-01-15T12:38:40.418Z,100346.21
2018-01-15T12:41:08.236Z,100341.01
2018-01-15T12:43:35.948Z,100354.98
2018-01-15T12:46:03.558Z,100336.08
2018-01-15T12:48:31.115Z,100349.84
2018-01-15T12:50:58.735Z,100341.87
2018-01-15T12:53:26.281Z,100334.70
2018-01-15T12:55:53.830Z,100330.78
2018-01-15T12:58:21.417Z,100320.26
2018-01-15T13:00:49.070Z,100322.04
2018-01-15T13:03:16.710Z,100323.34
2018-01-15T13:05:52.123Z,100325.86
2018-01-15T13:11:24.725Z,100335.26
2018-01-15T13:13:52.336Z,100341.61
2018-01-15T13:16:19.906Z,100332.73
2018-01-15T13:18:47.650Z,100325.56
2018-01-15T13:21:15.202Z,100324.20
2018-01-15T13:23:42.778Z,100314.30
2018-01-15T13:26:10.410Z,100310.33
2018-01-15T13:28:37.970Z,100319.52
2018-01-15T13:31:05.529Z,100318.70
2018-01-15T13:33:33.225Z,100308.89
2018-01-15T13:36:00.786Z,100300.06
2018-01-15T13:38:28.390Z,100291.31
2018-01-15T13:40:55.950Z,100292.36
2018-01-15T13:43:23.563Z,100299.98
2018-01-15T13:45:51.150Z,100295.24
2018-01-15T13:48:18.706Z,100297.44
2018-01-15T13:50:46.291Z,100299.22
2018-01-15T13:53:14.013Z,100289.55
2018-01-15T13:55:41.627Z,100291.66
2018-01-15T13:58:09.206Z,100278.27
2018-01-15T14:00:36.952Z,100276.50
2018-01-15T14:03:04.582Z,100267.55
2018-01-15T14:05:32.180Z,100267.20
2018-01-15T14:07:59.838Z,100270.55
2018-01-15T14:10:27.390Z,100269.73
2018-01-15T14:12:54.939Z,100272.70
2018-01-15T14:15:22.534Z,100265.30
2018-01-15T14:17:50.215Z,100260.58
2018-01-15T14:20:17.809Z,100259.41
2018-01-15T14:22:45.478Z,100273.77
2018-01-15T14:25:13.017Z,100261.95
2018-01-15T14:27:40.612Z,100251.80
2018-01-15T14:30:08.365Z,100249.69
2018-01-15T14:32:35.973Z,100251.77
2018-01-15T14:35:03.711Z,100228.74
2018-01-15T14:37:31.378Z,100248.47
2018-01-15T14:39:58.999Z,100246.33
2018-01-15T14:42:26.743Z,100248.05
2018-01-15T14:44:54.294Z,100259.50
2018-01-15T14:47:21.853Z,100253.52
2018-01-15T14:49:49.403Z,100252.66
2018-01-15T14:52:17.101Z,100255.23
2018-01-15T14:54:44.646Z,100252.92
2018-01-15T14:57:12.199Z,100253.04
2018-01-15T14:59:39.753Z,100246.22
2018-01-15T15:02:07.295Z,100237.80
2018-01-15T15:04:34.936Z,100230.27
2018-01-15T15:07:02.494Z,100236.33
2018-01-15T15:09:30.049Z,100238.05
2018-01-15T15:11:57.643Z,100232.53
2018-01-15T15:14:25.202Z,100235.89
2018-01-15T15:16:52.909Z,100235.00
2018-01-15T15:19:20.374Z,100230.78
2018-01-15T15:21:48.103Z,100221.00
2018-01-15T15:24:15.922Z,100219.43
2018-01-15T15:26:43.959Z,100209.25
2018-01-15T15:29:11.688Z,100207.18
2018-01-15T15:31:39.322Z,100195.34
2018-01-15T15:34:06.869Z,100189.41
2018-01-15T15:36:34.445Z,100196.92
2018-01-15T15:39:02.041Z,100192.31
2018-01-15T15:41:29.770Z,100187.69
2018-01-15T15:43:57.326Z,100186.94
2018-01-15T15:46:25.017Z,100186.53
2018-01-15T15:48:52.594Z,100193.73
2018-01-15T15:51:20.175Z,100188.23
2018-01-15T15:53:47.958Z,100188.63
2018-01-15T15:56:15.683Z,100180.63
2018-01-15T15:58:43.247Z,100177.58
2018-01-15T16:01:10.822Z,100166.12
2018-01-15T16:03:38.628Z,100173.32
2018-01-15T16:06:06.254Z,100168.64
2018-01-15T16:08:33.975Z,100169.43
2018-01-15T16:11:01.563Z,100168.56
2018-01-15T16:13:29.128Z,100172.44
2018-01-15T16:15:56.681Z,100172.42
2018-01-15T16:18:24.530Z,100170.81
2018-01-15T16:20:52.356Z,100170.61
2018-01-15T16:23:19.958Z,100175.75
2018-01-15T16:25:47.493Z,100181.68
2018-01-15T16:28:15.042Z,100184.62
2018-01-15T16:30:42.867Z,100177.92
2018-01-15T16:33:10.414Z,100169.47
2018-01-15T16:35:37.954Z,100171.28
2018-01-15T16:38:05.528Z,100165.85
2018-01-15T16:40:33.073Z,100170.05
2018-01-15T16:43:00.690Z,100164.94
2018-01-15T16:45:28.244Z,100155.91
2018-01-15T16:47:55.786Z,100146.51
2018-01-15T16:50:26.286Z,100145.66
2018-01-15T16:52:53.869Z,100145.75
2018-01-15T16:55:21.466Z,100144.53
2018-01-15T16:57:49.041Z,100140.23
2018-01-15T17:00:16.581Z,100151.17
2018-01-15T17:02:44.126Z,100158.78
2018-01-15T17:05:11.670Z,100165.16
2018-01-15T17:07:39.302Z,100155.14
2018-01-15T17:10:06.854Z,100159.48
2018-01-15T17:12:34.410Z,100156.54
2018-01-15T17:15:01.971Z,100165.12
2018-01-15T17:17:29.718Z,100151.66
2018-01-15T17:19:57.309Z,100142.37
2018-01-15T17:22:24.858Z,100143.64
2018-01-15T17:24:52.433Z,100135.17
2018-01-15T17:27:19.994Z,100128.00
2018-01-15T17:29:47.704Z,100133.16
2018-01-15T17:32:15.332Z,100131.38
2018-01-15T17:34:42.874Z,100125.89
2018-01-15T17:37:10.655Z,100136.08
2018-01-15T17:39:38.242Z,100134.82
2018-01-15T17:42:05.821Z,100134.88
2018-01-15T17:44:33.425Z,100120.48
2018-01-15T17:47:01.018Z,100102.30
2018-01-15T17:49:28.574Z,100100.09
2018-01-15T17:51:56.266Z,100105.63
2018-01-15T17:54:23.872Z,100111.87
2018-01-15T17:56:51.462Z,100117.77
2018-01-15T17:59:19.010Z,100117.03
2018-01-15T18:01:46.570Z,100121.19
2018-01-15T18:04:14.333Z,100115.20
2018-01-15T18:06:41.906Z,100115.22
2018-01-15T18:09:09.634Z,100117.78
2018-01-15T18:11:37.218Z,100121.63
2018-01-15T18:14:05.060Z,100120.30
2018-01-15T18:16:32.688Z,100120.86
2018-01-15T18:19:00.284Z,100115.83
2018-01-15T18:21:27.873Z,100109.48
2018-01-15T18:23:55.429Z,100092.97
2018-01-15T18:26:23.159Z,100086.12
2018-01-15T18:28:50.714Z,100081.84
2018-01-15T18:31:18.350Z,100083.89
2018-01-15T18:33:45.941Z,100081.72
2018-01-15T18:36:13.601Z,100072.41
2018-01-15T18:38:41.244Z,100061.36
2018-01-15T18:41:08.804Z,100058.75
2018-01-15T18:43:36.534Z,100053.77
2018-01-15T18:46:04.258Z,100042.02
2018-01-15T18:48:31.790Z,100039.09
2018-01-15T18:50:59.442Z,100042.05
2018-01-15T18:53:26.998Z,100038.20
2018-01-15T18:55:54.550Z,100045.44
2018-01-15T18:58:22.138Z,100050.81
2018-01-15T19:00:49.691Z,100041.88
2018-01-15T19:03:17.326Z,100032.99
2018-01-15T19:05:44.874Z,100026.65
2018-01-15T19:08:12.422Z,100021.14
2018-01-15T19:10:40.188Z,100022.84
2018-01-15T19:13:07.996Z,100024.47
2018-01-15T19:15:35.602Z,100032.50
2018-01-15T19:18:03.163Z,100029.59
2018-01-15T19:20:30.711Z,100020.61
2018-01-15T19:22:58.541Z,100023.99
2018-01-15T19:25:26.090Z,100011.77
2018-01-15T19:27:53.675Z,100010.47
2018-01-15T19:30:21.277Z,100009.14
2018-01-15T19:32:48.920Z,100002.67
2018-01-15T19:38:17.938Z,99996.72
2018-01-15T19:40:45.542Z,99990.89
2018-01-15T19:46:24.521Z,99981.45
2018-01-15T19:48:57.590Z,99981.94
2018-01-15T19:51:30.878Z,99981.99
2018-01-15T19:54:04.215Z,99968.77
2018-01-15T19:56:37.411Z,99977.23
2018-01-15T19:59:10.557Z,99967.61
2018-01-15T20:01:43.538Z,99957.44
2018-01-15T20:04:16.719Z,99955.30
2018-01-15T20:09:57.170Z,99953.02
2018-01-15T20:12:24.763Z,99950.94
2018-01-15T20:14:52.491Z,99949.65
2018-01-15T20:17:20.309Z,99949.14
2018-01-15T20:19:47.866Z,99955.98
2018-01-15T20:22:15.409Z,99934.89
2018-01-15T20:24:43.035Z,99922.56
2018-01-15T20:27:10.614Z,99909.18
2018-01-15T20:29:38.303Z,99912.64
2018-01-15T20:32:06.018Z,99913.36
2018-01-15T20:34:33.733Z,99904.12
2018-01-15T20:37:01.343Z,99903.68
2018-01-15T20:39:28.886Z,99902.54
2018-01-15T20:41:56.480Z,99897.91
2018-01-15T20:44:24.022Z,99912.36
2018-01-15T20:46:51.570Z,99928.92
2018-01-15T20:49:19.114Z,99922.34
2018-01-15T20:51:46.766Z,99920.75
2018-01-15T20:54:14.393Z,99906.03
2018-01-15T20:56:41.936Z,99900.47
2018-01-15T20:59:09.496Z,99899.20
2018-01-15T21:01:37.055Z,99896.85
2018-01-15T21:04:04.748Z,99892.64
2018-01-15T21:06:32.366Z,99895.97
2018-01-15T21:08:59.905Z,99902.29
2018-01-15T21:11:27.471Z,99903.95
2018-01-15T21:13:55.022Z,99906.46
2018-01-15T21:16:22.577Z,99905.16
2018-01-15T21:18:50.162Z,99900.55
2018-01-15T21:21:17.712Z,99897.59
2018-01-15T21:23:45.278Z,99896.83
2018-01-15T21:26:12.930Z,99897.23
2018-01-15T21:28:40.724Z,99897.67
2018-01-15T21:31:08.338Z,99907.38
2018-01-15T21:33:35.885Z,99894.78
2018-01-15T21:36:03.588Z,99907.86
2018-01-15T21:38:31.395Z,99899.92
2018-01-15T21:40:58.937Z,99893.28
2018-01-15T21:43:26.551Z,99895.86
2018-01-15T21:45:54.153Z,99893.26
2018-01-15T21:48:21.702Z,99887.77
2018-01-15T21:50:49.270Z,99891.52
2018-01-15T21:53:16.810Z,99891.12
2018-01-15T21:55:44.426Z,99889.06
2018-01-15T21:58:12.041Z,99884.42
2018-01-15T22:00:39.666Z,99896.30
2018-01-15T22:03:07.226Z,99872.20
2018-01-15T22:05:34.990Z,99876.46
2018-01-15T22:08:02.614Z,99877.61
2018-01-15T22:10:30.170Z,99870.36
2018-01-15T22:12:57.849Z,99872.84
2018-01-15T22:15:25.422Z,99875.79
2018-01-15T22:17:52.960Z,99878.73
2018-01-15T22:20:20.575Z,99877.84
2018-01-15T22:22:48.116Z,99877.78
2018-01-15T22:25:15.932Z,99877.46
2018-01-15T22:27:43.493Z,99866.81
2018-01-15T22:30:11.522Z,99856.25
2018-01-15T22:32:39.113Z,99860.48
2018-01-15T22:35:06.908Z,99860.06
2018-01-15T22:37:34.624Z,99856.95
2018-01-15T22:40:02.233Z,99843.91
2018-01-15T22:42:29.788Z,99843.59
2018-01-15T22:44:57.434Z,99846.11
2018-01-15T22:47:24.991Z,99840.20
2018-01-15T22:49:52.531Z,99843.13
2018-01-15T22:52:20.099Z,99837.62
2018-01-15T22:54:47.639Z,99840.55
2018-01-15T22:57:15.339Z,99832.09
2018-01-15T22:59:42.881Z,99815.93
2018-01-15T23:02:10.427Z,99813.81
2018-01-15T23:04:37.984Z,99816.36
2018-01-15T23:07:05.543Z,99811.26
2018-01-15T23:09:33.130Z,99810.10
2018-01-15T23:12:00.665Z,99809.27
2018-01-15T23:14:28.202Z,99801.66
2018-01-15T23:16:56.007Z,99797.05
2018-01-15T23:19:23.550Z,99795.70
2018-01-15T23:21:51.162Z,99783.39
2018-01-15T23:24:18.702Z,99784.62
2018-01-15T23:26:46.246Z,99781.77
2018-01-15T23:29:13.798Z,99790.52
2018-01-15T23:31:41.420Z,99777.70
2018-01-15T23:34:09.763Z,99760.76
2018-01-15T23:36:37.304Z,99751.75
2018-01-15T23:39:04.898Z,99749.56
2018-01-15T23:41:32.686Z,99759.66
2018-01-15T23:44:00.290Z,99775.72
2018-01-15T23:46:27.877Z,99767.70
2018-01-15T23:48:55.413Z,99771.56
2018-01-15T23:51:23.010Z,99776.73
2018-01-15T23:53:50.779Z,99764.89
2018-01-15T23:56:18.494Z,99779.25
2018-01-15T23:58:46.315Z,99790.25
